createdAt,value
2018-12-30T00:03:58.505Z,3.87
2018-12-30T00:06:24.699Z,2.63
2018-12-30T00:08:50.669Z,3.57
2018-12-30T00:11:16.440Z,3.53
2018-12-30T00:13:42.202Z,3.03
2018-12-30T00:16:07.957Z,3.37
2018-12-30T00:18:33.724Z,2.80
2018-12-30T00:24:26.583Z,3.13
2018-12-30T00:26:52.333Z,3.77
2018-12-30T00:29:18.094Z,3.93
2018-12-30T00:31:43.857Z,3.90
2018-12-30T00:34:09.634Z,3.80
2018-12-30T00:36:35.395Z,3.47
2018-12-30T00:39:01.159Z,2.67
2018-12-30T00:41:28.821Z,2.87
2018-12-30T00:46:28.742Z,3.17
2018-12-30T00:48:54.560Z,2.60
2018-12-30T00:51:20.312Z,2.80
2018-12-30T00:53:46.064Z,2.37
2018-12-30T00:56:11.931Z,2.30
2018-12-30T00:58:37.697Z,2.30
2018-12-30T01:01:03.473Z,2.30
2018-12-30T01:03:29.225Z,2.50
2018-12-30T01:06:14.888Z,2.63
2018-12-30T01:08:40.639Z,1.77
2018-12-30T01:11:06.615Z,1.77
2018-12-30T01:13:32.370Z,2.30
2018-12-30T01:15:58.136Z,2.30
2018-12-30T01:18:23.897Z,2.30
2018-12-30T01:20:49.670Z,2.60
2018-12-30T01:23:15.436Z,2.10
2018-12-30T01:25:41.193Z,1.90
2018-12-30T01:28:08.855Z,1.90
2018-12-30T01:30:34.635Z,2.00
2018-12-30T01:33:00.397Z,1.60
2018-12-30T01:35:26.177Z,2.00
2018-12-30T01:37:51.942Z,1.90
2018-12-30T01:40:17.722Z,1.47
2018-12-30T01:42:43.480Z,1.40
2018-12-30T01:45:11.158Z,1.30
2018-12-30T01:47:37.119Z,1.60
2018-12-30T01:50:44.560Z,1.97
2018-12-30T01:53:10.311Z,1.57
2018-12-30T01:55:36.079Z,1.50
2018-12-30T01:58:01.841Z,1.30
2018-12-30T02:00:27.613Z,1.33
2018-12-30T02:02:53.382Z,1.47
2018-12-30T02:05:19.149Z,1.33
2018-12-30T02:07:46.811Z,1.30
2018-12-30T02:10:12.589Z,1.30
2018-12-30T02:12:38.351Z,1.40
2018-12-30T02:15:04.224Z,1.43
2018-12-30T02:17:29.990Z,1.20
2018-12-30T02:19:55.752Z,1.10
2018-12-30T02:22:21.530Z,1.40
2018-12-30T02:24:47.519Z,1.77
2018-12-30T02:27:13.290Z,1.63
2018-12-30T02:29:39.051Z,1.60
2018-12-30T02:32:04.834Z,1.33
2018-12-30T02:34:30.580Z,1.80
2018-12-30T02:36:56.360Z,1.30
2018-12-30T02:39:24.021Z,1.87
2018-12-30T02:44:43.899Z,1.23
2018-12-30T02:47:09.761Z,1.53
2018-12-30T02:49:35.514Z,1.50
2018-12-30T02:52:43.012Z,1.80
2018-12-30T02:55:09.078Z,1.43
2018-12-30T02:57:34.837Z,1.50
2018-12-30T03:00:00.596Z,1.10
2018-12-30T03:02:26.489Z,1.60
2018-12-30T03:04:52.265Z,1.40
2018-12-30T03:07:18.043Z,1.20
2018-12-30T03:09:43.809Z,1.80
2018-12-30T03:12:09.580Z,1.40
2018-12-30T03:14:35.346Z,1.80
2018-12-30T03:17:01.116Z,1.90
2018-12-30T03:19:26.879Z,2.00
2018-12-30T03:21:59.101Z,1.70
2018-12-30T03:24:20.312Z,2.30
2018-12-30T03:26:46.089Z,2.07
2018-12-30T03:29:11.861Z,2.30
2018-12-30T03:31:37.652Z,2.60
2018-12-30T03:34:03.402Z,2.60
2018-12-30T03:36:29.175Z,2.67
2018-12-30T03:38:54.947Z,2.40
2018-12-30T03:41:20.719Z,2.97
2018-12-30T03:43:46.474Z,3.20
2018-12-30T03:46:12.240Z,3.00
2018-12-30T03:48:38.019Z,2.80
2018-12-30T03:51:03.788Z,2.73
2018-12-30T03:53:29.658Z,3.17
2018-12-30T03:55:55.418Z,3.07
2018-12-30T03:58:21.226Z,3.53
2018-12-30T04:01:06.866Z,2.67
2018-12-30T04:03:32.645Z,3.50
2018-12-30T04:05:58.402Z,3.43
2018-12-30T04:08:24.210Z,3.00
2018-12-30T04:10:49.973Z,3.43
2018-12-30T04:13:15.753Z,3.90
2018-12-30T04:16:01.396Z,3.93
2018-12-30T04:18:27.173Z,3.50
2018-12-30T04:20:52.927Z,3.60
2018-12-30T04:23:18.696Z,3.90
2018-12-30T04:25:44.449Z,3.83
2018-12-30T04:28:10.220Z,4.40
2018-12-30T04:30:35.977Z,3.77
2018-12-30T04:33:01.849Z,2.87
2018-12-30T04:35:27.623Z,4.27
2018-12-30T04:37:53.415Z,3.50
2018-12-30T04:40:19.175Z,4.43
2018-12-30T04:42:44.955Z,3.90
2018-12-30T04:45:10.745Z,4.07
2018-12-30T04:47:36.514Z,3.70
2018-12-30T04:53:29.357Z,5.37
2018-12-30T04:55:55.135Z,4.90
2018-12-30T04:58:20.907Z,5.00
2018-12-30T05:00:46.676Z,4.17
2018-12-30T05:03:12.463Z,4.37
2018-12-30T05:05:38.238Z,4.73
2018-12-30T05:08:04.030Z,3.77
2018-12-30T05:10:29.831Z,3.77
2018-12-30T05:12:55.565Z,4.03
2018-12-30T05:15:21.330Z,3.93
2018-12-30T05:17:47.103Z,3.60
2018-12-30T05:20:12.879Z,3.40
2018-12-30T05:22:38.699Z,4.00
2018-12-30T05:25:04.454Z,3.83
2018-12-30T05:27:30.224Z,2.80
2018-12-30T05:29:56.008Z,3.77
2018-12-30T05:32:21.770Z,3.30
2018-12-30T05:34:47.546Z,3.33
2018-12-30T05:37:13.314Z,3.33
2018-12-30T05:39:39.099Z,3.57
2018-12-30T05:42:04.860Z,3.27
2018-12-30T05:44:30.630Z,3.83
2018-12-30T05:46:56.487Z,2.60
2018-12-30T05:49:22.271Z,2.67
2018-12-30T05:52:07.931Z,3.17
2018-12-30T05:54:33.711Z,3.30
2018-12-30T05:56:59.496Z,3.30
2018-12-30T05:59:25.281Z,2.90
2018-12-30T06:01:51.054Z,3.00
2018-12-30T06:04:16.847Z,2.73
2018-12-30T06:06:42.612Z,3.23
2018-12-30T06:09:08.418Z,2.33
2018-12-30T06:11:34.179Z,2.77
2018-12-30T06:13:59.950Z,2.67
2018-12-30T06:16:25.712Z,2.97
2018-12-30T06:18:51.503Z,2.73
2018-12-30T06:21:17.255Z,2.30
2018-12-30T06:23:43.131Z,2.30
2018-12-30T06:26:08.907Z,3.47
2018-12-30T06:28:34.679Z,2.60
2018-12-30T06:31:00.463Z,3.23
2018-12-30T06:33:26.226Z,2.70
2018-12-30T06:35:52.007Z,2.67
2018-12-30T06:38:17.777Z,2.93
2018-12-30T06:40:43.549Z,2.43
2018-12-30T06:43:09.302Z,2.70
2018-12-30T06:45:35.080Z,2.73
2018-12-30T06:48:00.857Z,2.90
2018-12-30T06:50:26.662Z,2.03
2018-12-30T06:52:57.533Z,2.73
2018-12-30T06:55:20.103Z,2.90
2018-12-30T06:57:45.893Z,2.80
2018-12-30T07:00:11.631Z,2.53
2018-12-30T07:02:37.409Z,2.73
2018-12-30T07:05:44.879Z,3.30
2018-12-30T07:08:10.629Z,2.73
2018-12-30T07:10:36.424Z,3.13
2018-12-30T07:13:02.185Z,3.27
2018-12-30T07:15:27.952Z,2.60
2018-12-30T07:17:53.721Z,2.67
2018-12-30T07:20:19.503Z,2.80
2018-12-30T07:22:45.277Z,2.73
2018-12-30T07:25:11.051Z,3.47
2018-12-30T07:27:36.810Z,2.53
2018-12-30T07:30:44.290Z,2.93
2018-12-30T07:33:10.047Z,2.60
2018-12-30T07:35:35.820Z,2.40
2018-12-30T07:38:01.593Z,3.20
2018-12-30T07:40:27.358Z,2.80
2018-12-30T07:42:53.128Z,2.83
2018-12-30T07:45:18.902Z,2.67
2018-12-30T07:47:44.672Z,2.70
2018-12-30T07:50:10.463Z,2.67
2018-12-30T07:52:36.221Z,3.50
2018-12-30T07:55:02.121Z,2.93
2018-12-30T07:57:27.900Z,2.50
2018-12-30T07:59:53.670Z,3.30
2018-12-30T08:02:19.459Z,2.90
2018-12-30T08:04:45.210Z,3.77
2018-12-30T08:07:11.004Z,3.27
2018-12-30T08:09:36.784Z,2.93
2018-12-30T08:12:02.570Z,3.10
2018-12-30T08:17:15.645Z,3.47
2018-12-30T08:19:41.511Z,3.20
2018-12-30T08:22:07.301Z,3.90
2018-12-30T08:24:33.066Z,3.47
2018-12-30T08:26:58.835Z,4.17
2018-12-30T08:29:24.605Z,3.60
2018-12-30T08:31:50.376Z,4.27
2018-12-30T08:34:16.133Z,3.50
2018-12-30T08:36:41.923Z,3.83
2018-12-30T08:39:07.688Z,3.53
2018-12-30T08:41:33.469Z,3.47
2018-12-30T08:43:59.250Z,4.67
2018-12-30T08:46:25.047Z,3.70
2018-12-30T08:48:51.208Z,4.60
2018-12-30T08:57:05.350Z,3.13
2018-12-30T08:59:31.123Z,4.30
2018-12-30T09:01:56.937Z,3.10
2018-12-30T09:04:22.714Z,3.70
2018-12-30T09:09:22.122Z,4.00
2018-12-30T09:11:47.898Z,4.40
2018-12-30T09:14:33.578Z,4.47
2018-12-30T09:16:59.363Z,5.20
2018-12-30T09:20:06.831Z,4.43
2018-12-30T09:22:32.621Z,3.97
2018-12-30T09:24:58.389Z,4.90
2018-12-30T09:27:24.195Z,4.40
2018-12-30T09:29:50.031Z,4.40
2018-12-30T09:32:15.809Z,4.70
2018-12-30T09:34:41.581Z,4.87
2018-12-30T09:37:07.364Z,4.90
2018-12-30T09:39:33.136Z,5.50
2018-12-30T09:41:59.050Z,5.63
2018-12-30T09:47:32.175Z,4.20
2018-12-30T09:49:58.091Z,4.67
2018-12-30T09:53:06.103Z,4.13
2018-12-30T09:58:39.147Z,4.50
2018-12-30T10:01:04.961Z,4.87
2018-12-30T10:03:30.759Z,4.87
2018-12-30T10:05:56.523Z,5.53
2018-12-30T10:08:22.301Z,4.77
2018-12-30T10:10:48.076Z,4.47
2018-12-30T10:13:13.882Z,4.80
2018-12-30T10:15:39.671Z,4.33
2018-12-30T10:18:06.569Z,4.43
2018-12-30T10:20:32.324Z,4.97
2018-12-30T10:22:58.908Z,5.30
2018-12-30T10:25:25.886Z,4.43
2018-12-30T10:27:51.663Z,4.83
2018-12-30T10:30:17.437Z,4.40
2018-12-30T10:32:43.374Z,3.90
2018-12-30T10:35:09.127Z,3.67
2018-12-30T10:37:34.906Z,4.63
2018-12-30T10:40:00.656Z,4.27
2018-12-30T10:42:26.443Z,5.03
2018-12-30T10:44:52.230Z,4.03
2018-12-30T10:47:18.010Z,3.70
2018-12-30T10:49:43.809Z,4.53
2018-12-30T10:52:09.567Z,4.23
2018-12-30T10:54:35.335Z,4.10
2018-12-30T10:57:01.104Z,3.53
2018-12-30T10:59:26.900Z,4.33
2018-12-30T11:01:52.686Z,3.70
2018-12-30T11:04:18.518Z,3.93
2018-12-30T11:06:44.292Z,3.70
2018-12-30T11:09:10.076Z,4.33
2018-12-30T11:11:35.837Z,3.70
2018-12-30T11:14:01.616Z,3.83
2018-12-30T11:16:27.400Z,4.87
2018-12-30T11:18:53.177Z,4.57
2018-12-30T11:21:18.951Z,3.93
2018-12-30T11:23:44.721Z,4.07
2018-12-30T11:26:10.489Z,4.70
2018-12-30T11:28:36.282Z,3.50
2018-12-30T11:31:02.040Z,4.00
2018-12-30T11:33:27.814Z,4.13
2018-12-30T11:35:53.590Z,4.03
2018-12-30T11:38:19.871Z,4.10
2018-12-30T11:40:45.635Z,4.30
2018-12-30T11:43:11.696Z,4.20
2018-12-30T11:45:37.986Z,3.77
2018-12-30T11:48:03.846Z,4.37
2018-12-30T11:50:29.623Z,3.63
2018-12-30T11:52:55.895Z,4.40
2018-12-30T11:55:21.669Z,3.60
2018-12-30T11:57:47.445Z,4.67
2018-12-30T12:00:35.180Z,3.70
2018-12-30T12:03:15.541Z,4.27
2018-12-30T12:06:23.062Z,3.73
2018-12-30T12:08:48.844Z,4.33
2018-12-30T12:11:14.614Z,3.97
2018-12-30T12:13:40.453Z,4.13
2018-12-30T12:16:06.231Z,4.00
2018-12-30T12:18:32.072Z,4.17
2018-12-30T12:20:57.843Z,3.60
2018-12-30T12:23:23.616Z,3.10
2018-12-30T12:25:49.385Z,3.97
2018-12-30T12:31:22.344Z,3.83
2018-12-30T12:33:48.174Z,3.97
2018-12-30T12:38:59.387Z,3.77
2018-12-30T12:41:45.242Z,3.80
2018-12-30T12:44:11.141Z,4.07
2018-12-30T12:46:37.347Z,2.57
2018-12-30T12:49:03.111Z,3.40
2018-12-30T12:51:31.192Z,4.00
2018-12-30T12:53:57.047Z,3.60
2018-12-30T12:56:43.096Z,4.60
2018-12-30T12:59:09.049Z,4.53
2018-12-30T13:01:35.001Z,4.10
2018-12-30T13:04:01.379Z,4.43
2018-12-30T13:06:27.228Z,3.67
2018-12-30T13:08:53.011Z,3.87
2018-12-30T13:11:18.792Z,4.20
2018-12-30T13:13:44.558Z,4.10
2018-12-30T13:16:10.745Z,4.67
2018-12-30T13:18:36.822Z,3.23
2018-12-30T13:21:02.911Z,4.37
2018-12-30T13:23:29.077Z,3.90
2018-12-30T13:25:54.939Z,4.47
2018-12-30T13:28:21.023Z,4.87
2018-12-30T13:30:47.010Z,4.33
2018-12-30T13:33:13.070Z,4.07
2018-12-30T13:35:43.300Z,4.17
2018-12-30T13:38:06.544Z,4.40
2018-12-30T13:40:32.326Z,5.00
2018-12-30T13:42:58.098Z,4.33
2018-12-30T13:45:23.870Z,4.53
2018-12-30T13:50:56.948Z,4.20
2018-12-30T13:53:22.777Z,4.40
2018-12-30T13:55:48.796Z,4.60
2018-12-30T13:58:16.223Z,4.97
2018-12-30T14:00:42.012Z,4.33
2018-12-30T14:05:53.410Z,4.87
2018-12-30T14:08:19.262Z,3.90
2018-12-30T14:10:45.147Z,3.57
2018-12-30T14:13:10.919Z,4.17
2018-12-30T14:15:36.685Z,3.60
2018-12-30T14:18:02.462Z,4.67
2018-12-30T14:20:28.215Z,4.30
2018-12-30T14:22:54.027Z,4.60
2018-12-30T14:25:19.784Z,5.00
2018-12-30T14:27:45.554Z,4.10
2018-12-30T14:30:11.325Z,3.57
2018-12-30T14:32:37.122Z,4.60
2018-12-30T14:38:29.961Z,4.07
2018-12-30T14:40:55.713Z,4.80
2018-12-30T14:43:21.486Z,4.37
2018-12-30T14:45:47.585Z,3.70
2018-12-30T14:48:13.512Z,4.17
2018-12-30T14:50:39.363Z,5.00
2018-12-30T14:53:05.111Z,4.10
2018-12-30T14:55:30.897Z,4.17
2018-12-30T14:57:56.662Z,3.93
2018-12-30T15:00:22.426Z,4.63
2018-12-30T15:02:48.455Z,4.03
2018-12-30T15:05:14.222Z,3.97
2018-12-30T15:07:40.056Z,4.80
2018-12-30T15:10:05.870Z,4.43
2018-12-30T15:12:31.741Z,4.97
2018-12-30T15:14:58.037Z,4.10
2018-12-30T15:17:23.805Z,4.27
2018-12-30T15:19:49.585Z,4.33
2018-12-30T15:22:15.364Z,4.67
2018-12-30T15:24:41.149Z,4.50
2018-12-30T15:27:06.911Z,4.63
2018-12-30T15:29:32.689Z,4.93
2018-12-30T15:31:58.482Z,4.40
2018-12-30T15:34:26.062Z,4.10
2018-12-30T15:36:52.041Z,4.47
2018-12-30T15:39:17.808Z,4.90
2018-12-30T15:41:43.585Z,5.90
2018-12-30T15:44:09.413Z,4.67
2018-12-30T15:46:35.180Z,5.33
2018-12-30T15:49:01.047Z,5.07
2018-12-30T15:51:26.806Z,4.90
2018-12-30T15:53:52.572Z,5.20
2018-12-30T15:56:18.346Z,4.50
2018-12-30T15:58:44.105Z,4.60
2018-12-30T16:01:09.890Z,4.90
2018-12-30T16:03:35.660Z,4.90
2018-12-30T16:06:01.440Z,4.70
2018-12-30T16:08:47.091Z,4.60
2018-12-30T16:11:12.879Z,5.17
2018-12-30T16:13:38.637Z,4.17
2018-12-30T16:16:04.414Z,4.57
2018-12-30T16:18:30.173Z,5.20
2018-12-30T16:20:55.980Z,4.60
2018-12-30T16:23:21.740Z,5.63
2018-12-30T16:25:47.521Z,5.17
2018-12-30T16:28:13.276Z,5.97
2018-12-30T16:30:39.118Z,5.33
2018-12-30T16:33:04.876Z,5.67
2018-12-30T16:35:30.641Z,4.17
2018-12-30T16:37:56.410Z,4.77
2018-12-30T16:40:22.186Z,4.40
2018-12-30T16:42:47.964Z,8.00
2018-12-30T16:45:13.723Z,4.70
2018-12-30T16:47:42.029Z,5.03
2018-12-30T16:50:07.172Z,4.93
2018-12-30T16:52:32.961Z,5.70
2018-12-30T16:54:58.717Z,4.67
2018-12-30T16:57:24.477Z,5.10
2018-12-30T16:59:50.240Z,5.07
2018-12-30T17:02:16.036Z,5.07
2018-12-30T17:04:41.795Z,4.63
2018-12-30T17:07:07.576Z,5.57
2018-12-30T17:09:33.337Z,4.77
2018-12-30T17:11:59.165Z,4.37
2018-12-30T17:14:24.914Z,4.97
2018-12-30T17:16:50.670Z,4.73
2018-12-30T17:19:16.452Z,5.17
2018-12-30T17:21:42.210Z,5.67
2018-12-30T17:24:08.000Z,4.87
2018-12-30T17:26:33.785Z,5.10
2018-12-30T17:28:59.554Z,5.37
2018-12-30T17:31:25.332Z,5.33
2018-12-30T17:33:51.125Z,6.10
2018-12-30T17:36:16.887Z,5.70
2018-12-30T17:38:42.668Z,6.23
2018-12-30T17:41:08.441Z,7.10
2018-12-30T17:43:34.219Z,7.27
2018-12-30T17:46:00.006Z,7.10
2018-12-30T17:48:25.754Z,6.03
2018-12-30T17:51:11.420Z,6.53
2018-12-30T17:53:37.347Z,7.42
2018-12-30T17:56:03.103Z,6.60
2018-12-30T17:58:28.899Z,6.20
2018-12-30T18:00:54.655Z,6.97
2018-12-30T18:03:20.424Z,5.27
2018-12-30T18:05:46.213Z,4.93
2018-12-30T18:08:11.972Z,5.13
2018-12-30T18:10:37.747Z,5.10
2018-12-30T18:13:03.524Z,4.80
2018-12-30T18:15:49.194Z,4.23
2018-12-30T18:18:14.982Z,5.30
2018-12-30T18:20:40.755Z,4.83
2018-12-30T18:23:06.523Z,5.53
2018-12-30T18:25:32.305Z,5.80
2018-12-30T18:27:58.061Z,8.07
2018-12-30T18:30:23.845Z,6.63
2018-12-30T18:32:49.620Z,6.27
2018-12-30T18:35:15.412Z,6.53
2018-12-30T18:37:41.188Z,6.20
2018-12-30T18:40:06.990Z,6.50
2018-12-30T18:42:32.753Z,6.30
2018-12-30T18:44:58.538Z,5.13
2018-12-30T18:47:44.397Z,6.20
2018-12-30T18:50:10.993Z,5.57
2018-12-30T18:52:37.177Z,4.63
2018-12-30T18:55:44.572Z,5.70
2018-12-30T18:58:10.337Z,5.87
2018-12-30T19:00:36.122Z,6.10
2018-12-30T19:03:02.030Z,6.03
2018-12-30T19:05:27.799Z,5.50
2018-12-30T19:07:56.655Z,5.83
2018-12-30T19:13:35.780Z,6.43
2018-12-30T19:16:01.550Z,6.00
2018-12-30T19:18:27.324Z,6.17
2018-12-30T19:20:53.184Z,6.60
2018-12-30T19:23:18.940Z,6.37
2018-12-30T19:25:44.728Z,8.17
2018-12-30T19:28:10.533Z,9.20
2018-12-30T19:30:36.315Z,9.27
2018-12-30T19:33:02.175Z,9.80
2018-12-30T19:35:27.996Z,8.87
2018-12-30T19:37:53.767Z,8.80
2018-12-30T19:40:19.615Z,8.77
2018-12-30T19:42:45.377Z,17.13
2018-12-30T19:45:11.197Z,14.17
2018-12-30T19:47:36.966Z,28.70
2018-12-30T19:50:44.420Z,24.87
2018-12-30T19:53:10.174Z,21.03
2018-12-30T19:55:35.972Z,19.90
2018-12-30T19:58:01.752Z,17.53
2018-12-30T20:00:27.514Z,12.87
2018-12-30T20:02:53.308Z,11.17
2018-12-30T20:05:19.086Z,8.37
2018-12-30T20:07:44.874Z,8.90
2018-12-30T20:10:10.636Z,7.70
2018-12-30T20:12:36.421Z,7.30
2018-12-30T20:15:43.921Z,7.80
2018-12-30T20:18:09.714Z,6.57
2018-12-30T20:20:35.577Z,7.23
2018-12-30T20:23:01.342Z,7.10
2018-12-30T20:25:27.167Z,9.90
2018-12-30T20:27:52.945Z,10.70
2018-12-30T20:30:18.740Z,8.17
2018-12-30T20:32:44.503Z,13.37
2018-12-30T20:35:10.285Z,15.97
2018-12-30T20:37:36.072Z,14.03
2018-12-30T20:43:09.147Z,12.17
2018-12-30T20:45:34.951Z,12.93
2018-12-30T20:48:00.721Z,14.23
2018-12-30T20:50:26.495Z,15.10
2018-12-30T20:52:52.288Z,15.83
2018-12-30T20:55:18.039Z,13.57
2018-12-30T20:57:43.823Z,16.17
2018-12-30T21:00:09.600Z,11.63
2018-12-30T21:02:35.379Z,12.07
2018-12-30T21:05:01.180Z,11.93
2018-12-30T21:07:26.967Z,12.60
2018-12-30T21:09:52.751Z,13.23
2018-12-30T21:12:18.539Z,13.30
2018-12-30T21:14:44.303Z,15.47
2018-12-30T21:17:10.075Z,16.10
2018-12-30T21:19:35.836Z,13.63
2018-12-30T21:22:01.610Z,13.47
2018-12-30T21:24:27.377Z,12.67
2018-12-30T21:26:53.186Z,12.27
2018-12-30T21:29:18.944Z,12.47
2018-12-30T21:31:44.714Z,11.03
2018-12-30T21:34:10.489Z,12.30
2018-12-30T21:36:36.263Z,9.53
2018-12-30T21:39:43.742Z,11.10
2018-12-30T21:42:09.521Z,9.70
2018-12-30T21:44:35.362Z,8.90
2018-12-30T21:47:01.121Z,11.30
2018-12-30T21:49:26.895Z,11.23
2018-12-30T21:51:52.682Z,12.07
2018-12-30T21:54:18.474Z,11.67
2018-12-30T21:56:44.246Z,12.50
2018-12-30T21:59:10.017Z,10.70
2018-12-30T22:01:35.785Z,9.53
2018-12-30T22:04:01.575Z,9.97
2018-12-30T22:06:27.331Z,10.57
2018-12-30T22:08:53.099Z,10.73
2018-12-30T22:11:18.853Z,9.60
2018-12-30T22:16:25.839Z,10.57
2018-12-30T22:18:51.639Z,10.10
2018-12-30T22:21:17.399Z,9.17
2018-12-30T22:23:43.181Z,9.60
2018-12-30T22:26:08.957Z,9.80
2018-12-30T22:28:34.729Z,8.50
2018-12-30T22:31:00.511Z,8.23
2018-12-30T22:33:26.282Z,9.73
2018-12-30T22:35:52.036Z,7.67
2018-12-30T22:38:17.814Z,7.73
2018-12-30T22:40:43.582Z,6.83
2018-12-30T22:43:09.339Z,6.83
2018-12-30T22:45:35.294Z,6.73
2018-12-30T22:48:01.062Z,7.90
2018-12-30T22:50:26.905Z,7.60
2018-12-30T22:52:52.724Z,7.73
2018-12-30T22:55:18.510Z,8.77
2018-12-30T22:57:44.297Z,7.80
2018-12-30T23:02:43.549Z,8.83
2018-12-30T23:05:09.413Z,7.33
2018-12-30T23:07:35.177Z,7.43
2018-12-30T23:10:00.960Z,7.10
2018-12-30T23:12:26.724Z,7.60
2018-12-30T23:14:52.491Z,10.80
2018-12-30T23:17:18.246Z,9.70
2018-12-30T23:19:44.021Z,9.90
2018-12-30T23:22:09.806Z,10.63
2018-12-30T23:24:35.587Z,9.90
2018-12-30T23:27:01.354Z,10.80
2018-12-30T23:29:27.153Z,8.70
2018-12-30T23:31:52.930Z,9.23
2018-12-30T23:34:18.711Z,10.07
2018-12-30T23:37:04.378Z,9.37
2018-12-30T23:39:30.171Z,15.30
2018-12-30T23:41:55.971Z,11.63
2018-12-30T23:44:21.727Z,16.13
2018-12-30T23:46:47.523Z,16.47
2018-12-30T23:49:13.290Z,16.77
2018-12-30T23:51:39.063Z,18.27
2018-12-30T23:54:04.835Z,17.00
2018-12-30T23:56:30.624Z,17.50
2018-12-30T23:58:56.396Z,21.30
